sensor_id;sensor_type;location;lat;lon;timestamp;P1;durP1;ratioP1;P2;durP2;ratioP2
15256;SDS011;7731;50.720;6.912;2023-06-10T00:01:18;10.63;;;9.63;;
15256;SDS011;7731;50.720;6.912;2023-06-10T00:03:49;9.57;;;8.73;;
15256;SDS011;7731;50.720;6.912;2023-06-10T00:06:20;9.38;;;8.40;;
15256;SDS011;7731;50.720;6.912;2023-06-10T00:08:51;9.25;;;8.48;;
15256;SDS011;7731;50.720;6.912;2023-06-10T00:11:29;9.05;;;8.02;;
15256;SDS011;7731;50.720;6.912;2023-06-10T00:14:02;9.10;;;8.27;;
15256;SDS011;7731;50.720;6.912;2023-06-10T00:16:33;8.82;;;7.93;;
15256;SDS011;7731;50.720;6.912;2023-06-10T00:19:05;9.52;;;8.73;;
15256;SDS011;7731;50.720;6.912;2023-06-10T00:21:36;9.35;;;8.45;;
15256;SDS011;7731;50.720;6.912;2023-06-10T00:24:07;8.38;;;7.68;;
15256;SDS011;7731;50.720;6.912;2023-06-10T00:26:46;9.40;;;8.50;;
15256;SDS011;7731;50.720;6.912;2023-06-10T00:29:19;9.10;;;8.15;;
15256;SDS011;7731;50.720;6.912;2023-06-10T00:31:50;8.85;;;7.65;;
15256;SDS011;7731;50.720;6.912;2023-06-10T00:34:25;9.18;;;8.27;;
15256;SDS011;7731;50.720;6.912;2023-06-10T00:36:55;9.15;;;8.25;;
15256;SDS011;7731;50.720;6.912;2023-06-10T00:39:25;8.30;;;7.60;;
15256;SDS011;7731;50.720;6.912;2023-06-10T00:41:56;8.27;;;7.50;;
15256;SDS011;7731;50.720;6.912;2023-06-10T00:44:29;8.48;;;7.63;;
15256;SDS011;7731;50.720;6.912;2023-06-10T00:46:59;9.77;;;8.82;;
15256;SDS011;7731;50.720;6.912;2023-06-10T00:49:33;9.65;;;8.82;;
15256;SDS011;7731;50.720;6.912;2023-06-10T00:52:04;11.27;;;10.27;;
15256;SDS011;7731;50.720;6.912;2023-06-10T00:54:41;10.15;;;9.25;;
15256;SDS011;7731;50.720;6.912;2023-06-10T00:57:12;9.98;;;9.18;;
15256;SDS011;7731;50.720;6.912;2023-06-10T00:59:52;10.07;;;9.18;;
15256;SDS011;7731;50.720;6.912;2023-06-10T01:02:33;9.45;;;8.65;;
15256;SDS011;7731;50.720;6.912;2023-06-10T01:05:05;10.00;;;9.00;;
15256;SDS011;7731;50.720;6.912;2023-06-10T01:07:38;10.07;;;9.18;;
15256;SDS011;7731;50.720;6.912;2023-06-10T01:10:20;9.88;;;9.13;;
15256;SDS011;7731;50.720;6.912;2023-06-10T01:13:03;10.15;;;9.35;;
15256;SDS011;7731;50.720;6.912;2023-06-10T01:15:43;10.50;;;9.60;;
15256;SDS011;7731;50.720;6.912;2023-06-10T01:18:19;10.02;;;9.18;;
15256;SDS011;7731;50.720;6.912;2023-06-10T01:20:50;10.52;;;9.63;;
15256;SDS011;7731;50.720;6.912;2023-06-10T01:23:23;10.60;;;9.70;;
15256;SDS011;7731;50.720;6.912;2023-06-10T01:25:57;11.50;;;10.40;;
15256;SDS011;7731;50.720;6.912;2023-06-10T01:28:36;11.15;;;10.07;;
15256;SDS011;7731;50.720;6.912;2023-06-10T01:31:21;10.80;;;9.75;;
15256;SDS011;7731;50.720;6.912;2023-06-10T01:34:07;10.30;;;9.40;;
15256;SDS011;7731;50.720;6.912;2023-06-10T01:36:43;11.13;;;10.02;;
15256;SDS011;7731;50.720;6.912;2023-06-10T01:39:21;10.15;;;9.25;;
15256;SDS011;7731;50.720;6.912;2023-06-10T01:41:53;11.00;;;10.10;;
15256;SDS011;7731;50.720;6.912;2023-06-10T01:44:25;10.93;;;10.13;;
15256;SDS011;7731;50.720;6.912;2023-06-10T01:46:58;11.52;;;10.55;;
15256;SDS011;7731;50.720;6.912;2023-06-10T01:49:30;11.07;;;10.05;;
15256;SDS011;7731;50.720;6.912;2023-06-10T01:52:01;11.85;;;10.75;;
15256;SDS011;7731;50.720;6.912;2023-06-10T01:54:34;11.02;;;10.15;;
15256;SDS011;7731;50.720;6.912;2023-06-10T01:57:07;11.10;;;10.20;;
15256;SDS011;7731;50.720;6.912;2023-06-10T01:59:38;11.13;;;10.02;;
15256;SDS011;7731;50.720;6.912;2023-06-10T02:02:13;11.02;;;10.00;;
15256;SDS011;7731;50.720;6.912;2023-06-10T02:04:43;11.43;;;10.50;;
15256;SDS011;7731;50.720;6.912;2023-06-10T02:07:19;10.65;;;9.75;;
15256;SDS011;7731;50.720;6.912;2023-06-10T02:09:52;11.07;;;10.13;;
15256;SDS011;7731;50.720;6.912;2023-06-10T02:12:25;11.15;;;10.25;;
15256;SDS011;7731;50.720;6.912;2023-06-10T02:14:55;10.50;;;9.60;;
15256;SDS011;7731;50.720;6.912;2023-06-10T02:17:25;11.48;;;10.48;;
15256;SDS011;7731;50.720;6.912;2023-06-10T02:19:56;11.52;;;10.60;;
15256;SDS011;7731;50.720;6.912;2023-06-10T02:22:33;11.40;;;10.35;;
15256;SDS011;7731;50.720;6.912;2023-06-10T02:25:06;10.82;;;9.75;;
15256;SDS011;7731;50.720;6.912;2023-06-10T02:27:38;11.50;;;10.60;;
15256;SDS011;7731;50.720;6.912;2023-06-10T02:30:11;11.30;;;10.32;;
15256;SDS011;7731;50.720;6.912;2023-06-10T02:32:48;10.63;;;9.73;;
15256;SDS011;7731;50.720;6.912;2023-06-10T02:35:19;10.73;;;9.85;;
15256;SDS011;7731;50.720;6.912;2023-06-10T02:37:50;11.68;;;10.63;;
15256;SDS011;7731;50.720;6.912;2023-06-10T02:40:23;11.45;;;10.43;;
15256;SDS011;7731;50.720;6.912;2023-06-10T02:42:56;11.02;;;10.00;;
15256;SDS011;7731;50.720;6.912;2023-06-10T02:45:27;10.43;;;9.52;;
15256;SDS011;7731;50.720;6.912;2023-06-10T02:47:58;13.05;;;10.73;;
15256;SDS011;7731;50.720;6.912;2023-06-10T02:50:31;12.02;;;11.02;;
15256;SDS011;7731;50.720;6.912;2023-06-10T02:53:02;11.70;;;10.50;;
15256;SDS011;7731;50.720;6.912;2023-06-10T02:55:35;12.15;;;11.00;;
15256;SDS011;7731;50.720;6.912;2023-06-10T02:58:06;11.38;;;10.48;;
15256;SDS011;7731;50.720;6.912;2023-06-10T03:00:39;11.57;;;10.57;;
15256;SDS011;7731;50.720;6.912;2023-06-10T03:03:09;12.13;;;10.98;;
15256;SDS011;7731;50.720;6.912;2023-06-10T03:05:42;11.77;;;10.70;;
15256;SDS011;7731;50.720;6.912;2023-06-10T03:08:15;12.20;;;10.98;;
15256;SDS011;7731;50.720;6.912;2023-06-10T03:10:49;10.60;;;9.75;;
15256;SDS011;7731;50.720;6.912;2023-06-10T03:13:20;11.43;;;10.43;;
15256;SDS011;7731;50.720;6.912;2023-06-10T03:15:50;11.40;;;10.50;;
15256;SDS011;7731;50.720;6.912;2023-06-10T03:18:20;12.52;;;11.10;;
15256;SDS011;7731;50.720;6.912;2023-06-10T03:20:51;11.55;;;10.45;;
15256;SDS011;7731;50.720;6.912;2023-06-10T03:23:22;11.57;;;10.65;;
15256;SDS011;7731;50.720;6.912;2023-06-10T03:25:56;12.18;;;11.18;;
15256;SDS011;7731;50.720;6.912;2023-06-10T03:28:27;12.48;;;11.15;;
15256;SDS011;7731;50.720;6.912;2023-06-10T03:31:00;11.65;;;10.68;;
15256;SDS011;7731;50.720;6.912;2023-06-10T03:33:35;12.38;;;11.30;;
15256;SDS011;7731;50.720;6.912;2023-06-10T03:36:06;12.43;;;11.32;;
15256;SDS011;7731;50.720;6.912;2023-06-10T03:38:37;12.98;;;11.70;;
15256;SDS011;7731;50.720;6.912;2023-06-10T03:41:10;11.65;;;10.75;;
15256;SDS011;7731;50.720;6.912;2023-06-10T03:43:40;11.70;;;10.60;;
15256;SDS011;7731;50.720;6.912;2023-06-10T03:46:11;12.32;;;11.32;;
15256;SDS011;7731;50.720;6.912;2023-06-10T03:48:41;12.13;;;11.02;;
15256;SDS011;7731;50.720;6.912;2023-06-10T03:51:14;11.77;;;10.77;;
15256;SDS011;7731;50.720;6.912;2023-06-10T03:53:45;11.65;;;10.70;;
15256;SDS011;7731;50.720;6.912;2023-06-10T03:56:20;12.15;;;11.15;;
15256;SDS011;7731;50.720;6.912;2023-06-10T03:58:52;12.20;;;11.10;;
15256;SDS011;7731;50.720;6.912;2023-06-10T04:01:25;13.48;;;12.10;;
15256;SDS011;7731;50.720;6.912;2023-06-10T04:03:55;13.05;;;11.68;;
15256;SDS011;7731;50.720;6.912;2023-06-10T04:06:27;13.32;;;12.13;;
15256;SDS011;7731;50.720;6.912;2023-06-10T04:08:58;13.15;;;12.15;;
15256;SDS011;7731;50.720;6.912;2023-06-10T04:11:34;13.15;;;12.10;;
15256;SDS011;7731;50.720;6.912;2023-06-10T04:14:05;13.07;;;11.98;;
15256;SDS011;7731;50.720;6.912;2023-06-10T04:16:35;12.93;;;11.73;;
15256;SDS011;7731;50.720;6.912;2023-06-10T04:19:05;12.27;;;11.18;;
15256;SDS011;7731;50.720;6.912;2023-06-10T04:21:36;12.68;;;11.68;;
15256;SDS011;7731;50.720;6.912;2023-06-10T04:24:07;11.68;;;10.68;;
15256;SDS011;7731;50.720;6.912;2023-06-10T04:26:40;12.52;;;11.35;;
15256;SDS011;7731;50.720;6.912;2023-06-10T04:29:13;12.02;;;10.88;;
15256;SDS011;7731;50.720;6.912;2023-06-10T04:31:46;11.68;;;10.48;;
15256;SDS011;7731;50.720;6.912;2023-06-10T04:34:17;11.07;;;9.93;;
15256;SDS011;7731;50.720;6.912;2023-06-10T04:36:50;10.48;;;9.38;;
15256;SDS011;7731;50.720;6.912;2023-06-10T04:39:20;11.50;;;10.43;;
15256;SDS011;7731;50.720;6.912;2023-06-10T04:41:54;11.85;;;10.50;;
15256;SDS011;7731;50.720;6.912;2023-06-10T04:44:24;12.40;;;11.30;;
15256;SDS011;7731;50.720;6.912;2023-06-10T04:46:55;12.55;;;10.90;;
15256;SDS011;7731;50.720;6.912;2023-06-10T04:49:26;10.82;;;9.82;;
15256;SDS011;7731;50.720;6.912;2023-06-10T04:51:56;11.52;;;10.40;;
15256;SDS011;7731;50.720;6.912;2023-06-10T04:54:30;12.50;;;11.18;;
15256;SDS011;7731;50.720;6.912;2023-06-10T04:57:06;11.68;;;10.68;;
15256;SDS011;7731;50.720;6.912;2023-06-10T04:59:41;12.15;;;11.10;;
15256;SDS011;7731;50.720;6.912;2023-06-10T05:02:14;11.50;;;10.40;;
15256;SDS011;7731;50.720;6.912;2023-06-10T05:04:44;11.75;;;10.63;;
15256;SDS011;7731;50.720;6.912;2023-06-10T05:07:17;11.95;;;10.88;;
15256;SDS011;7731;50.720;6.912;2023-06-10T05:09:50;12.57;;;10.55;;
15256;SDS011;7731;50.720;6.912;2023-06-10T05:12:23;10.93;;;9.82;;
15256;SDS011;7731;50.720;6.912;2023-06-10T05:14:54;10.38;;;9.45;;
15256;SDS011;7731;50.720;6.912;2023-06-10T05:17:24;12.48;;;9.98;;
15256;SDS011;7731;50.720;6.912;2023-06-10T05:19:55;11.95;;;9.80;;
15256;SDS011;7731;50.720;6.912;2023-06-10T05:22:25;11.35;;;9.98;;
15256;SDS011;7731;50.720;6.912;2023-06-10T05:24:55;10.25;;;9.25;;
15256;SDS011;7731;50.720;6.912;2023-06-10T05:27:28;10.52;;;9.50;;
15256;SDS011;7731;50.720;6.912;2023-06-10T05:29:59;9.95;;;8.93;;
15256;SDS011;7731;50.720;6.912;2023-06-10T05:32:30;9.65;;;8.77;;
15256;SDS011;7731;50.720;6.912;2023-06-10T05:35:03;9.70;;;8.98;;
15256;SDS011;7731;50.720;6.912;2023-06-10T05:37:49;10.30;;;9.32;;
15256;SDS011;7731;50.720;6.912;2023-06-10T05:40:21;9.95;;;9.15;;
15256;SDS011;7731;50.720;6.912;2023-06-10T05:42:54;13.40;;;9.80;;
15256;SDS011;7731;50.720;6.912;2023-06-10T05:45:25;10.73;;;9.63;;
15256;SDS011;7731;50.720;6.912;2023-06-10T05:47:56;10.23;;;9.25;;
15256;SDS011;7731;50.720;6.912;2023-06-10T05:50:29;9.45;;;8.52;;
15256;SDS011;7731;50.720;6.912;2023-06-10T05:53:04;11.02;;;9.82;;
15256;SDS011;7731;50.720;6.912;2023-06-10T05:55:42;8.98;;;8.18;;
15256;SDS011;7731;50.720;6.912;2023-06-10T05:58:15;10.10;;;9.20;;
15256;SDS011;7731;50.720;6.912;2023-06-10T06:00:47;9.15;;;8.45;;
15256;SDS011;7731;50.720;6.912;2023-06-10T06:03:20;8.73;;;8.00;;
15256;SDS011;7731;50.720;6.912;2023-06-10T06:05:52;8.52;;;7.75;;
15256;SDS011;7731;50.720;6.912;2023-06-10T06:08:22;7.68;;;7.00;;
15256;SDS011;7731;50.720;6.912;2023-06-10T06:10:55;8.93;;;8.02;;
15256;SDS011;7731;50.720;6.912;2023-06-10T06:13:28;7.72;;;7.13;;
15256;SDS011;7731;50.720;6.912;2023-06-10T06:15:59;7.93;;;7.22;;
15256;SDS011;7731;50.720;6.912;2023-06-10T06:18:29;9.57;;;6.95;;
15256;SDS011;7731;50.720;6.912;2023-06-10T06:21:02;7.85;;;7.00;;
15256;SDS011;7731;50.720;6.912;2023-06-10T06:23:32;7.82;;;7.03;;
15256;SDS011;7731;50.720;6.912;2023-06-10T06:26:05;6.97;;;6.22;;
15256;SDS011;7731;50.720;6.912;2023-06-10T06:28:37;7.55;;;6.85;;
15256;SDS011;7731;50.720;6.912;2023-06-10T06:31:17;7.32;;;6.72;;
15256;SDS011;7731;50.720;6.912;2023-06-10T06:33:47;10.50;;;7.40;;
15256;SDS011;7731;50.720;6.912;2023-06-10T06:36:31;7.28;;;6.57;;
15256;SDS011;7731;50.720;6.912;2023-06-10T06:39:01;7.38;;;6.68;;
15256;SDS011;7731;50.720;6.912;2023-06-10T06:41:35;6.72;;;6.07;;
15256;SDS011;7731;50.720;6.912;2023-06-10T06:44:08;6.75;;;6.18;;
15256;SDS011;7731;50.720;6.912;2023-06-10T06:46:41;7.25;;;6.35;;
15256;SDS011;7731;50.720;6.912;2023-06-10T06:49:11;7.00;;;6.40;;
15256;SDS011;7731;50.720;6.912;2023-06-10T06:51:41;8.25;;;6.60;;
15256;SDS011;7731;50.720;6.912;2023-06-10T06:54:12;7.85;;;6.13;;
15256;SDS011;7731;50.720;6.912;2023-06-10T06:56:44;6.35;;;5.85;;
15256;SDS011;7731;50.720;6.912;2023-06-10T06:59:20;7.28;;;6.40;;
15256;SDS011;7731;50.720;6.912;2023-06-10T07:01:54;6.72;;;6.13;;
15256;SDS011;7731;50.720;6.912;2023-06-10T07:04:24;6.93;;;6.35;;
15256;SDS011;7731;50.720;6.912;2023-06-10T07:06:55;6.72;;;6.13;;
15256;SDS011;7731;50.720;6.912;2023-06-10T07:09:25;6.40;;;5.80;;
15256;SDS011;7731;50.720;6.912;2023-06-10T07:11:56;6.65;;;6.05;;
15256;SDS011;7731;50.720;6.912;2023-06-10T07:14:31;5.88;;;5.47;;
15256;SDS011;7731;50.720;6.912;2023-06-10T07:17:05;6.28;;;5.68;;
15256;SDS011;7731;50.720;6.912;2023-06-10T07:19:35;6.00;;;5.50;;
15256;SDS011;7731;50.720;6.912;2023-06-10T07:22:06;6.38;;;5.78;;
15256;SDS011;7731;50.720;6.912;2023-06-10T07:24:36;6.35;;;5.78;;
15256;SDS011;7731;50.720;6.912;2023-06-10T07:27:06;6.35;;;5.78;;
15256;SDS011;7731;50.720;6.912;2023-06-10T07:29:39;6.35;;;5.70;;
15256;SDS011;7731;50.720;6.912;2023-06-10T07:32:10;6.50;;;6.00;;
15256;SDS011;7731;50.720;6.912;2023-06-10T07:34:50;7.13;;;6.45;;
15256;SDS011;7731;50.720;6.912;2023-06-10T07:37:20;7.65;;;5.80;;
15256;SDS011;7731;50.720;6.912;2023-06-10T07:39:50;6.80;;;6.30;;
15256;SDS011;7731;50.720;6.912;2023-06-10T07:42:24;7.68;;;6.70;;
15256;SDS011;7731;50.720;6.912;2023-06-10T07:45:02;7.40;;;6.82;;
15256;SDS011;7731;50.720;6.912;2023-06-10T07:47:34;6.90;;;6.30;;
15256;SDS011;7731;50.720;6.912;2023-06-10T07:50:10;6.63;;;6.00;;
15256;SDS011;7731;50.720;6.912;2023-06-10T07:52:41;7.43;;;6.53;;
15256;SDS011;7731;50.720;6.912;2023-06-10T07:55:11;6.70;;;6.13;;
15256;SDS011;7731;50.720;6.912;2023-06-10T07:57:50;6.35;;;5.75;;
15256;SDS011;7731;50.720;6.912;2023-06-10T08:00:23;6.85;;;6.32;;
15256;SDS011;7731;50.720;6.912;2023-06-10T08:02:53;6.97;;;6.38;;
15256;SDS011;7731;50.720;6.912;2023-06-10T08:05:24;7.45;;;6.78;;
15256;SDS011;7731;50.720;6.912;2023-06-10T08:07:55;7.13;;;6.50;;
15256;SDS011;7731;50.720;6.912;2023-06-10T08:10:29;7.85;;;7.10;;
15256;SDS011;7731;50.720;6.912;2023-06-10T08:12:59;7.03;;;6.43;;
15256;SDS011;7731;50.720;6.912;2023-06-10T08:15:32;6.93;;;6.05;;
15256;SDS011;7731;50.720;6.912;2023-06-10T08:18:03;7.25;;;6.55;;
15256;SDS011;7731;50.720;6.912;2023-06-10T08:20:33;7.15;;;6.55;;
15256;SDS011;7731;50.720;6.912;2023-06-10T08:23:06;7.30;;;6.60;;
15256;SDS011;7731;50.720;6.912;2023-06-10T08:25:36;7.57;;;6.97;;
15256;SDS011;7731;50.720;6.912;2023-06-10T08:28:10;7.57;;;6.75;;
15256;SDS011;7731;50.720;6.912;2023-06-10T08:30:55;6.47;;;5.88;;
15256;SDS011;7731;50.720;6.912;2023-06-10T08:33:25;6.78;;;6.22;;
15256;SDS011;7731;50.720;6.912;2023-06-10T08:36:00;6.90;;;6.40;;
15256;SDS011;7731;50.720;6.912;2023-06-10T08:38:32;6.88;;;6.38;;
15256;SDS011;7731;50.720;6.912;2023-06-10T08:41:06;7.30;;;6.70;;
15256;SDS011;7731;50.720;6.912;2023-06-10T08:43:44;7.05;;;6.32;;
15256;SDS011;7731;50.720;6.912;2023-06-10T08:46:28;6.72;;;6.22;;
15256;SDS011;7731;50.720;6.912;2023-06-10T08:49:02;7.18;;;6.57;;
15256;SDS011;7731;50.720;6.912;2023-06-10T08:51:40;6.72;;;6.22;;
15256;SDS011;7731;50.720;6.912;2023-06-10T08:54:15;7.03;;;6.43;;
15256;SDS011;7731;50.720;6.912;2023-06-10T08:56:53;7.53;;;6.32;;
15256;SDS011;7731;50.720;6.912;2023-06-10T08:59:29;7.47;;;6.78;;
15256;SDS011;7731;50.720;6.912;2023-06-10T09:02:02;7.03;;;6.43;;
15256;SDS011;7731;50.720;6.912;2023-06-10T09:04:36;6.93;;;6.30;;
15256;SDS011;7731;50.720;6.912;2023-06-10T09:07:07;7.20;;;6.55;;
15256;SDS011;7731;50.720;6.912;2023-06-10T09:09:41;7.18;;;6.68;;
15256;SDS011;7731;50.720;6.912;2023-06-10T09:12:21;6.90;;;6.30;;
15256;SDS011;7731;50.720;6.912;2023-06-10T09:14:52;6.40;;;5.82;;
15256;SDS011;7731;50.720;6.912;2023-06-10T09:17:34;6.90;;;6.30;;
15256;SDS011;7731;50.720;6.912;2023-06-10T09:20:07;6.68;;;6.18;;
15256;SDS011;7731;50.720;6.912;2023-06-10T09:22:38;6.88;;;6.18;;
15256;SDS011;7731;50.720;6.912;2023-06-10T09:25:11;7.72;;;7.05;;
15256;SDS011;7731;50.720;6.912;2023-06-10T09:27:45;7.47;;;6.78;;
15256;SDS011;7731;50.720;6.912;2023-06-10T09:30:23;7.55;;;6.85;;
15256;SDS011;7731;50.720;6.912;2023-06-10T09:32:59;7.03;;;6.43;;
15256;SDS011;7731;50.720;6.912;2023-06-10T09:35:32;7.45;;;6.85;;
15256;SDS011;7731;50.720;6.912;2023-06-10T09:38:02;7.00;;;6.40;;
15256;SDS011;7731;50.720;6.912;2023-06-10T09:40:39;7.50;;;6.80;;
15256;SDS011;7731;50.720;6.912;2023-06-10T09:43:22;7.63;;;6.93;;
15256;SDS011;7731;50.720;6.912;2023-06-10T09:45:52;7.38;;;6.80;;
15256;SDS011;7731;50.720;6.912;2023-06-10T09:48:42;7.80;;;7.00;;
15256;SDS011;7731;50.720;6.912;2023-06-10T09:51:13;7.90;;;6.70;;
15256;SDS011;7731;50.720;6.912;2023-06-10T09:53:47;7.43;;;6.82;;
15256;SDS011;7731;50.720;6.912;2023-06-10T09:56:21;10.20;;;7.00;;
15256;SDS011;7731;50.720;6.912;2023-06-10T09:59:09;6.90;;;6.30;;
15256;SDS011;7731;50.720;6.912;2023-06-10T10:01:42;7.03;;;6.47;;
15256;SDS011;7731;50.720;6.912;2023-06-10T10:04:25;7.35;;;6.40;;
15256;SDS011;7731;50.720;6.912;2023-06-10T10:07:05;7.28;;;6.53;;
15256;SDS011;7731;50.720;6.912;2023-06-10T10:09:36;7.35;;;6.60;;
15256;SDS011;7731;50.720;6.912;2023-06-10T10:12:10;7.95;;;6.50;;
15256;SDS011;7731;50.720;6.912;2023-06-10T10:14:43;9.63;;;7.05;;
15256;SDS011;7731;50.720;6.912;2023-06-10T10:17:23;6.72;;;6.20;;
15256;SDS011;7731;50.720;6.912;2023-06-10T10:19:58;7.45;;;6.75;;
15256;SDS011;7731;50.720;6.912;2023-06-10T10:22:35;7.25;;;6.63;;
15256;SDS011;7731;50.720;6.912;2023-06-10T10:25:10;6.93;;;6.43;;
15256;SDS011;7731;50.720;6.912;2023-06-10T10:27:48;6.78;;;6.13;;
15256;SDS011;7731;50.720;6.912;2023-06-10T10:30:24;7.03;;;6.18;;
15256;SDS011;7731;50.720;6.912;2023-06-10T10:33:00;6.65;;;6.15;;
15256;SDS011;7731;50.720;6.912;2023-06-10T10:35:39;7.63;;;7.03;;
15256;SDS011;7731;50.720;6.912;2023-06-10T10:38:10;7.30;;;6.80;;
15256;SDS011;7731;50.720;6.912;2023-06-10T10:40:41;7.53;;;6.82;;
15256;SDS011;7731;50.720;6.912;2023-06-10T10:43:14;7.68;;;6.65;;
15256;SDS011;7731;50.720;6.912;2023-06-10T10:45:46;7.38;;;6.78;;
15256;SDS011;7731;50.720;6.912;2023-06-10T10:48:33;7.65;;;6.95;;
15256;SDS011;7731;50.720;6.912;2023-06-10T10:51:13;7.43;;;6.82;;
15256;SDS011;7731;50.720;6.912;2023-06-10T10:59:50;10.55;;;6.93;;
15256;SDS011;7731;50.720;6.912;2023-06-10T11:02:36;6.82;;;6.13;;
15256;SDS011;7731;50.720;6.912;2023-06-10T11:05:13;6.82;;;6.32;;
15256;SDS011;7731;50.720;6.912;2023-06-10T11:07:56;6.70;;;6.10;;
15256;SDS011;7731;50.720;6.912;2023-06-10T11:10:28;7.97;;;7.18;;
15256;SDS011;7731;50.720;6.912;2023-06-10T11:13:02;7.05;;;6.40;;
15256;SDS011;7731;50.720;6.912;2023-06-10T11:15:43;6.68;;;6.07;;
15256;SDS011;7731;50.720;6.912;2023-06-10T11:18:20;7.00;;;6.30;;
15256;SDS011;7731;50.720;6.912;2023-06-10T11:20:53;6.65;;;6.05;;
15256;SDS011;7731;50.720;6.912;2023-06-10T11:23:33;8.07;;;6.10;;
15256;SDS011;7731;50.720;6.912;2023-06-10T11:26:13;6.80;;;6.20;;
15256;SDS011;7731;50.720;6.912;2023-06-10T11:29:06;6.97;;;6.38;;
15256;SDS011;7731;50.720;6.912;2023-06-10T11:31:38;7.13;;;6.50;;
15256;SDS011;7731;50.720;6.912;2023-06-10T11:34:22;7.07;;;6.50;;
15256;SDS011;7731;50.720;6.912;2023-06-10T11:36:54;7.07;;;6.38;;
15256;SDS011;7731;50.720;6.912;2023-06-10T11:39:29;7.50;;;6.80;;
15256;SDS011;7731;50.720;6.912;2023-06-10T11:41:59;7.03;;;6.50;;
15256;SDS011;7731;50.720;6.912;2023-06-10T11:44:30;7.43;;;6.72;;
15256;SDS011;7731;50.720;6.912;2023-06-10T11:47:04;7.53;;;6.80;;
15256;SDS011;7731;50.720;6.912;2023-06-10T11:49:38;7.53;;;6.75;;
15256;SDS011;7731;50.720;6.912;2023-06-10T11:52:11;7.28;;;6.68;;
15256;SDS011;7731;50.720;6.912;2023-06-10T11:54:46;8.30;;;6.40;;
15256;SDS011;7731;50.720;6.912;2023-06-10T11:57:23;7.60;;;6.82;;
15256;SDS011;7731;50.720;6.912;2023-06-10T11:59:57;7.07;;;6.47;;
15256;SDS011;7731;50.720;6.912;2023-06-10T12:02:34;7.95;;;6.90;;
15256;SDS011;7731;50.720;6.912;2023-06-10T12:05:11;7.15;;;6.53;;
15256;SDS011;7731;50.720;6.912;2023-06-10T12:07:46;8.63;;;6.97;;
15256;SDS011;7731;50.720;6.912;2023-06-10T12:10:18;6.93;;;6.25;;
15256;SDS011;7731;50.720;6.912;2023-06-10T12:12:53;7.68;;;6.72;;
15256;SDS011;7731;50.720;6.912;2023-06-10T12:15:25;7.88;;;7.05;;
15256;SDS011;7731;50.720;6.912;2023-06-10T12:17:55;6.63;;;6.03;;
15256;SDS011;7731;50.720;6.912;2023-06-10T12:20:26;7.68;;;6.30;;
15256;SDS011;7731;50.720;6.912;2023-06-10T12:23:08;7.05;;;6.38;;
15256;SDS011;7731;50.720;6.912;2023-06-10T12:25:43;6.10;;;5.55;;
15256;SDS011;7731;50.720;6.912;2023-06-10T12:28:23;7.15;;;5.85;;
15256;SDS011;7731;50.720;6.912;2023-06-10T12:31:06;7.63;;;6.13;;
15256;SDS011;7731;50.720;6.912;2023-06-10T12:33:37;5.47;;;5.03;;
15256;SDS011;7731;50.720;6.912;2023-06-10T12:36:15;6.05;;;5.55;;
15256;SDS011;7731;50.720;6.912;2023-06-10T12:38:47;7.32;;;6.47;;
15256;SDS011;7731;50.720;6.912;2023-06-10T12:41:22;5.75;;;5.22;;
15256;SDS011;7731;50.720;6.912;2023-06-10T12:43:53;5.68;;;5.18;;
15256;SDS011;7731;50.720;6.912;2023-06-10T12:46:35;6.57;;;5.25;;
15256;SDS011;7731;50.720;6.912;2023-06-10T12:49:06;5.38;;;4.97;;
15256;SDS011;7731;50.720;6.912;2023-06-10T12:51:36;6.15;;;5.53;;
15256;SDS011;7731;50.720;6.912;2023-06-10T12:54:10;5.75;;;5.25;;
15256;SDS011;7731;50.720;6.912;2023-06-10T12:56:43;6.28;;;5.68;;
15256;SDS011;7731;50.720;6.912;2023-06-10T12:59:16;6.00;;;5.20;;
15256;SDS011;7731;50.720;6.912;2023-06-10T13:01:49;5.55;;;5.05;;
15256;SDS011;7731;50.720;6.912;2023-06-10T13:04:21;7.32;;;5.20;;
15256;SDS011;7731;50.720;6.912;2023-06-10T13:06:55;5.65;;;5.15;;
15256;SDS011;7731;50.720;6.912;2023-06-10T13:09:34;6.03;;;5.40;;
15256;SDS011;7731;50.720;6.912;2023-06-10T13:12:07;5.55;;;5.07;;
15256;SDS011;7731;50.720;6.912;2023-06-10T13:14:42;6.53;;;5.10;;
15256;SDS011;7731;50.720;6.912;2023-06-10T13:17:15;5.43;;;4.93;;
15256;SDS011;7731;50.720;6.912;2023-06-10T13:19:46;5.75;;;5.25;;
15256;SDS011;7731;50.720;6.912;2023-06-10T13:22:20;7.85;;;5.40;;
15256;SDS011;7731;50.720;6.912;2023-06-10T13:25:00;5.95;;;5.45;;
15256;SDS011;7731;50.720;6.912;2023-06-10T13:27:33;5.22;;;4.82;;
15256;SDS011;7731;50.720;6.912;2023-06-10T13:30:08;7.35;;;5.22;;
15256;SDS011;7731;50.720;6.912;2023-06-10T13:32:40;8.40;;;5.75;;
15256;SDS011;7731;50.720;6.912;2023-06-10T13:35:10;5.13;;;4.63;;
15256;SDS011;7731;50.720;6.912;2023-06-10T13:37:41;6.22;;;5.60;;
15256;SDS011;7731;50.720;6.912;2023-06-10T13:40:14;6.22;;;4.68;;
15256;SDS011;7731;50.720;6.912;2023-06-10T13:42:48;5.95;;;5.15;;
15256;SDS011;7731;50.720;6.912;2023-06-10T13:45:25;7.32;;;4.75;;
15256;SDS011;7731;50.720;6.912;2023-06-10T13:48:05;8.90;;;5.47;;
15256;SDS011;7731;50.720;6.912;2023-06-10T13:50:36;7.38;;;5.20;;
15256;SDS011;7731;50.720;6.912;2023-06-10T13:53:07;5.72;;;5.15;;
15256;SDS011;7731;50.720;6.912;2023-06-10T13:55:37;5.38;;;4.75;;
15256;SDS011;7731;50.720;6.912;2023-06-10T13:58:10;6.43;;;5.07;;
15256;SDS011;7731;50.720;6.912;2023-06-10T14:00:43;6.13;;;5.53;;
15256;SDS011;7731;50.720;6.912;2023-06-10T14:03:13;8.88;;;4.78;;
15256;SDS011;7731;50.720;6.912;2023-06-10T14:05:53;6.50;;;5.32;;
15256;SDS011;7731;50.720;6.912;2023-06-10T14:08:23;5.43;;;4.93;;
15256;SDS011;7731;50.720;6.912;2023-06-10T14:10:53;5.50;;;4.85;;
15256;SDS011;7731;50.720;6.912;2023-06-10T14:13:26;5.47;;;4.97;;
15256;SDS011;7731;50.720;6.912;2023-06-10T14:16:00;5.82;;;5.28;;
15256;SDS011;7731;50.720;6.912;2023-06-10T14:18:36;8.32;;;5.78;;
15256;SDS011;7731;50.720;6.912;2023-06-10T14:21:06;5.22;;;4.80;;
15256;SDS011;7731;50.720;6.912;2023-06-10T14:23:36;5.78;;;5.28;;
15256;SDS011;7731;50.720;6.912;2023-06-10T14:26:10;8.27;;;5.10;;
15256;SDS011;7731;50.720;6.912;2023-06-10T14:28:43;8.80;;;4.93;;
15256;SDS011;7731;50.720;6.912;2023-06-10T14:31:16;4.93;;;4.53;;
15256;SDS011;7731;50.720;6.912;2023-06-10T14:33:47;5.20;;;4.72;;
15256;SDS011;7731;50.720;6.912;2023-06-10T14:36:18;4.90;;;4.47;;
15256;SDS011;7731;50.720;6.912;2023-06-10T14:38:48;7.70;;;4.95;;
15256;SDS011;7731;50.720;6.912;2023-06-10T14:41:21;5.30;;;4.80;;
15256;SDS011;7731;50.720;6.912;2023-06-10T14:43:55;6.03;;;4.90;;
15256;SDS011;7731;50.720;6.912;2023-06-10T14:46:33;5.38;;;4.45;;
15256;SDS011;7731;50.720;6.912;2023-06-10T14:49:04;5.78;;;5.07;;
15256;SDS011;7731;50.720;6.912;2023-06-10T14:51:34;5.38;;;4.88;;
15256;SDS011;7731;50.720;6.912;2023-06-10T14:54:04;6.25;;;5.22;;
15256;SDS011;7731;50.720;6.912;2023-06-10T14:56:37;5.70;;;4.30;;
15256;SDS011;7731;50.720;6.912;2023-06-10T14:59:12;7.70;;;5.10;;
15256;SDS011;7731;50.720;6.912;2023-06-10T15:01:43;5.13;;;4.70;;
15256;SDS011;7731;50.720;6.912;2023-06-10T15:04:16;5.88;;;5.20;;
15256;SDS011;7731;50.720;6.912;2023-06-10T15:06:49;5.20;;;4.80;;
15256;SDS011;7731;50.720;6.912;2023-06-10T15:09:20;6.00;;;5.40;;
15256;SDS011;7731;50.720;6.912;2023-06-10T15:11:50;5.40;;;4.90;;
15256;SDS011;7731;50.720;6.912;2023-06-10T15:14:23;5.07;;;4.68;;
15256;SDS011;7731;50.720;6.912;2023-06-10T15:16:53;5.60;;;5.10;;
15256;SDS011;7731;50.720;6.912;2023-06-10T15:19:27;5.45;;;4.95;;
15256;SDS011;7731;50.720;6.912;2023-06-10T15:21:57;5.72;;;5.10;;
15256;SDS011;7731;50.720;6.912;2023-06-10T15:24:27;5.95;;;5.45;;
15256;SDS011;7731;50.720;6.912;2023-06-10T15:27:00;6.38;;;5.30;;
15256;SDS011;7731;50.720;6.912;2023-06-10T15:29:33;5.18;;;4.78;;
15256;SDS011;7731;50.720;6.912;2023-06-10T15:32:04;5.38;;;4.88;;
15256;SDS011;7731;50.720;6.912;2023-06-10T15:34:46;4.85;;;4.45;;
15256;SDS011;7731;50.720;6.912;2023-06-10T15:37:19;5.00;;;4.50;;